Time;durP1;ratioP1;P1;durP2;ratioP2;P2;SDS_P1;SDS_P2;PMS_P1;PMS_P2;Temp;Humidity;BMP_temperature;BMP_pressure;BME280_temperature;BME280_humidity;BME280_pressure;Samples;Min_cycle;Max_cycle;Signal;HPM_P1;HPM_P2
2022/04/19 00:00:41;;;;;;;1.85;1.10;;;;;;;;;;5114443;28;20023;-52
2022/04/19 00:03:08;;;;;;;2.22;1.08;;;;;;;;;;5115230;28;20019;-51
2022/04/19 00:05:34;;;;;;;2.05;1.10;;;;;;;;;;5114351;28;20103;-51
2022/04/19 00:08:00;;;;;;;3.17;1.48;;;;;;;;;;5115031;28;20020;-51
2022/04/19 00:10:28;;;;;;;2.15;1.02;;;;;;;;;;5114105;28;20065;-55
2022/04/19 00:12:55;;;;;;;2.25;1.15;;;;;;;;;;5113991;28;20024;-51
2022/04/19 00:15:21;;;;;;;1.67;1.00;;;;;;;;;;5114861;28;20031;-48
2022/04/19 00:17:48;;;;;;;2.10;1.35;;;;;;;;;;5114153;28;20023;-49
2022/04/19 00:20:15;;;;;;;2.05;1.20;;;;;;;;;;5114722;28;20073;-49
2022/04/19 00:22:41;;;;;;;1.83;1.02;;;;;;;;;;5113969;28;20024;-48
2022/04/19 00:25:07;;;;;;;2.47;1.33;;;;;;;;;;5114493;28;20043;-48
2022/04/19 00:27:34;;;;;;;1.50;1.10;;;;;;;;;;5113999;28;20031;-48
2022/04/19 00:30:01;;;;;;;2.00;1.10;;;;;;;;;;5114655;28;20106;-51
2022/04/19 00:32:27;;;;;;;1.13;1.00;;;;;;;;;;5114526;28;20032;-48
2022/04/19 00:34:53;;;;;;;1.98;1.40;;;;;;;;;;5113943;28;20042;-51
2022/04/19 00:37:19;;;;;;;1.45;1.25;;;;;;;;;;5114437;28;20378;-52
2022/04/19 00:39:46;;;;;;;1.73;1.08;;;;;;;;;;5113643;28;20126;-49
2022/04/19 00:42:12;;;;;;;3.35;1.10;;;;;;;;;;5114365;28;20020;-49
2022/04/19 00:44:39;;;;;;;1.92;1.20;;;;;;;;;;5113252;28;20101;-50
2022/04/19 00:47:09;;;;;;;2.03;0.90;;;;;;;;;;5114332;28;20037;-51
2022/04/19 00:49:38;;;;;;;1.35;0.90;;;;;;;;;;5113455;28;20077;-48
2022/04/19 00:52:05;;;;;;;1.90;1.13;;;;;;;;;;5114149;28;20022;-50
2022/04/19 00:54:31;;;;;;;1.13;1.00;;;;;;;;;;5113763;28;20058;-56
2022/04/19 00:56:57;;;;;;;2.38;1.13;;;;;;;;;;5113919;28;20031;-48
2022/04/19 00:59:24;;;;;;;1.67;1.10;;;;;;;;;;5114143;28;20028;-48
2022/04/19 01:01:50;;;;;;;1.27;0.85;;;;;;;;;;5113243;28;20027;-50
2022/04/19 01:04:17;;;;;;;1.85;1.05;;;;;;;;;;5113971;28;20103;-48
2022/04/19 01:06:43;;;;;;;2.00;1.20;;;;;;;;;;5112876;28;20020;-48
2022/04/19 01:09:09;;;;;;;1.40;1.00;;;;;;;;;;5113908;28;20391;-48
2022/04/19 01:14:20;;;;;;;1.58;1.00;;;;;;;;;;5113585;28;20042;-49
2022/04/19 01:16:46;;;;;;;2.30;1.00;;;;;;;;;;5112685;28;20020;-48
2022/04/19 01:19:15;;;;;;;1.88;1.20;;;;;;;;;;5095457;28;20024;-48
2022/04/19 01:21:45;;;;;;;2.10;1.23;;;;;;;;;;5112660;28;20015;-49
2022/04/19 01:24:18;;;;;;;1.00;0.85;;;;;;;;;;5113516;28;20031;-49
2022/04/19 01:26:45;;;;;;;1.17;1.08;;;;;;;;;;5112528;28;20473;-49
2022/04/19 01:29:11;;;;;;;1.35;0.90;;;;;;;;;;5113212;28;20027;-48
2022/04/19 01:31:38;;;;;;;1.42;1.00;;;;;;;;;;5112673;28;20095;-49
2022/04/19 01:34:04;;;;;;;1.25;1.10;;;;;;;;;;5113293;28;20114;-50
2022/04/19 01:36:30;;;;;;;1.42;0.95;;;;;;;;;;5113317;28;20078;-48
2022/04/19 01:38:56;;;;;;;1.95;1.17;;;;;;;;;;5112286;28;20484;-48
2022/04/19 01:41:22;;;;;;;1.90;1.10;;;;;;;;;;5113296;28;20028;-48
2022/04/19 01:43:49;;;;;;;2.10;1.20;;;;;;;;;;5112261;28;20080;-48
2022/04/19 01:46:18;;;;;;;1.75;1.02;;;;;;;;;;5113271;28;20100;-48
2022/04/19 01:48:44;;;;;;;1.80;1.23;;;;;;;;;;5112334;28;20106;-50
2022/04/19 01:51:12;;;;;;;1.48;1.13;;;;;;;;;;5113131;28;20099;-51
2022/04/19 01:53:38;;;;;;;1.63;1.10;;;;;;;;;;5112243;28;20032;-48
2022/04/19 01:56:06;;;;;;;1.92;1.30;;;;;;;;;;5113062;28;20031;-48
2022/04/19 01:58:33;;;;;;;2.65;1.27;;;;;;;;;;5113024;28;20028;-48
2022/04/19 02:00:59;;;;;;;1.98;1.55;;;;;;;;;;5112385;28;20055;-48
2022/04/19 02:03:25;;;;;;;6.50;1.42;;;;;;;;;;5113172;28;20355;-48
2022/04/19 02:05:51;;;;;;;2.88;1.05;;;;;;;;;;5112043;28;20073;-48
2022/04/19 02:08:17;;;;;;;1.83;1.15;;;;;;;;;;5113223;28;20095;-48
2022/04/19 02:10:43;;;;;;;2.75;1.30;;;;;;;;;;5112040;28;20528;-51
2022/04/19 02:13:09;;;;;;;3.15;1.17;;;;;;;;;;5112685;28;20050;-50
2022/04/19 02:15:35;;;;;;;1.58;1.02;;;;;;;;;;5112562;28;20464;-55
2022/04/19 02:18:01;;;;;;;2.28;1.23;;;;;;;;;;5112204;28;20027;-49
2022/04/19 02:20:27;;;;;;;2.30;1.35;;;;;;;;;;5112361;28;20099;-48
2022/04/19 02:22:53;;;;;;;1.63;1.23;;;;;;;;;;5112233;28;20377;-48
2022/04/19 02:25:19;;;;;;;2.05;1.13;;;;;;;;;;5113032;28;20024;-48
2022/04/19 02:27:46;;;;;;;1.85;1.30;;;;;;;;;;5111870;28;20023;-49
2022/04/19 02:30:17;;;;;;;1.38;1.13;;;;;;;;;;5112614;28;20038;-48
2022/04/19 02:32:49;;;;;;;2.17;1.00;;;;;;;;;;5093659;28;20430;-49
2022/04/19 02:35:18;;;;;;;1.65;0.98;;;;;;;;;;5096858;28;20388;-50
2022/04/19 02:37:54;;;;;;;1.35;1.00;;;;;;;;;;5116018;28;20024;-48
2022/04/19 02:40:20;;;;;;;2.15;1.30;;;;;;;;;;5117142;28;20027;-48
2022/04/19 02:42:48;;;;;;;2.80;1.30;;;;;;;;;;5097583;28;20030;-49
2022/04/19 02:45:14;;;;;;;1.88;1.17;;;;;;;;;;5116676;28;20083;-49
2022/04/19 02:47:43;;;;;;;2.25;1.23;;;;;;;;;;5097544;28;20381;-56
2022/04/19 02:50:10;;;;;;;2.15;1.00;;;;;;;;;;5116616;28;20065;-48
2022/04/19 02:52:36;;;;;;;1.42;0.82;;;;;;;;;;5116488;28;20035;-48
2022/04/19 02:55:01;;;;;;;2.17;1.63;;;;;;;;;;5115501;28;20039;-49
2022/04/19 02:57:27;;;;;;;1.73;1.13;;;;;;;;;;5116755;28;20480;-48
2022/04/19 02:59:53;;;;;;;1.35;0.98;;;;;;;;;;5115646;28;20111;-48
2022/04/19 03:02:20;;;;;;;1.75;1.10;;;;;;;;;;5116300;28;20453;-48
2022/04/19 03:04:46;;;;;;;1.45;1.10;;;;;;;;;;5115583;28;20058;-48
2022/04/19 03:07:15;;;;;;;1.55;1.08;;;;;;;;;;5116546;28;20081;-51
2022/04/19 03:09:41;;;;;;;1.35;1.10;;;;;;;;;;5115414;28;20112;-55
2022/04/19 03:12:10;;;;;;;1.60;1.00;;;;;;;;;;5115805;28;20020;-48
2022/04/19 03:14:36;;;;;;;1.60;1.00;;;;;;;;;;5115795;28;20485;-48
2022/04/19 03:17:02;;;;;;;1.60;1.13;;;;;;;;;;5115577;28;20055;-49
2022/04/19 03:19:28;;;;;;;1.73;1.25;;;;;;;;;;5097535;28;20032;-48
2022/04/19 03:21:54;;;;;;;1.45;1.00;;;;;;;;;;5115222;28;20027;-48
2022/04/19 03:29:49;;;;;;;1.58;1.17;;;;;;;;;;5115198;28;20084;-48
2022/04/19 03:32:15;;;;;;;2.70;1.50;;;;;;;;;;5115488;28;20023;-49
2022/04/19 03:34:42;;;;;;;1.60;1.10;;;;;;;;;;5115529;28;20031;-56
2022/04/19 03:37:09;;;;;;;1.98;1.20;;;;;;;;;;5115357;28;20028;-48
2022/04/19 03:39:35;;;;;;;1.52;1.02;;;;;;;;;;5115523;28;20492;-50
2022/04/19 03:42:01;;;;;;;1.50;1.20;;;;;;;;;;5114770;28;20304;-48
2022/04/19 03:44:30;;;;;;;1.55;1.00;;;;;;;;;;5115543;28;20047;-49
2022/04/19 03:47:09;;;;;;;3.17;1.90;;;;;;;;;;5114477;28;20024;-50
2022/04/19 03:49:38;;;;;;;2.13;1.20;;;;;;;;;;5115634;28;20024;-50
2022/04/19 03:52:05;;;;;;;1.63;1.05;;;;;;;;;;5114621;28;20023;-52
2022/04/19 03:54:34;;;;;;;1.70;1.23;;;;;;;;;;5115328;28;20050;-48
2022/04/19 03:57:00;;;;;;;1.73;1.02;;;;;;;;;;5114484;28;20207;-48
2022/04/19 03:59:26;;;;;;;2.38;1.15;;;;;;;;;;5115150;28;20477;-48
2022/04/19 04:01:52;;;;;;;1.88;1.10;;;;;;;;;;5114427;28;20090;-48
2022/04/19 04:04:18;;;;;;;1.70;1.13;;;;;;;;;;5114886;28;20023;-51
2022/04/19 04:06:44;;;;;;;3.35;1.08;;;;;;;;;;5114570;28;20040;-55
2022/04/19 04:09:10;;;;;;;2.42;1.45;;;;;;;;;;5115119;28;20049;-52
2022/04/19 04:11:36;;;;;;;1.20;1.02;;;;;;;;;;5115150;28;20023;-50
2022/04/19 04:14:02;;;;;;;1.35;1.00;;;;;;;;;;5113902;28;20606;-48
2022/04/19 04:16:28;;;;;;;1.30;0.85;;;;;;;;;;5114903;28;20042;-49
2022/04/19 04:18:54;;;;;;;1.55;1.00;;;;;;;;;;5114113;28;20016;-48
2022/04/19 04:21:20;;;;;;;2.17;1.48;;;;;;;;;;5115165;28;20020;-49
2022/04/19 04:23:46;;;;;;;2.40;1.20;;;;;;;;;;5113981;28;20076;-55
2022/04/19 04:26:12;;;;;;;1.25;1.10;;;;;;;;;;5115235;28;20116;-53
2022/04/19 04:28:38;;;;;;;1.17;1.08;;;;;;;;;;5114996;28;20184;-51
2022/04/19 04:31:06;;;;;;;2.17;1.10;;;;;;;;;;5114137;28;20599;-51
2022/04/19 04:33:32;;;;;;;1.67;1.15;;;;;;;;;;5114522;28;20123;-49
2022/04/19 04:35:58;;;;;;;1.20;1.02;;;;;;;;;;5113723;28;20055;-52
2022/04/19 04:38:24;;;;;;;2.03;1.10;;;;;;;;;;5114303;28;20369;-48
2022/04/19 04:40:51;;;;;;;2.63;1.27;;;;;;;;;;5114033;28;20020;-49
2022/04/19 04:43:17;;;;;;;1.88;1.17;;;;;;;;;;5114473;28;20031;-49
2022/04/19 04:45:43;;;;;;;1.77;1.33;;;;;;;;;;5114459;28;20373;-48
2022/04/19 04:50:54;;;;;;;1.98;1.08;;;;;;;;;;5113343;28;20076;-49
2022/04/19 04:53:22;;;;;;;1.50;1.10;;;;;;;;;;5095908;28;20036;-48
2022/04/19 04:55:48;;;;;;;2.30;1.38;;;;;;;;;;5113661;28;20511;-55
2022/04/19 04:58:14;;;;;;;1.50;1.00;;;;;;;;;;5113341;28;20031;-49
2022/04/19 05:00:40;;;;;;;1.50;1.10;;;;;;;;;;5114095;28;20031;-50
2022/04/19 05:03:07;;;;;;;1.15;1.00;;;;;;;;;;5112986;28;20586;-49
2022/04/19 05:05:33;;;;;;;2.20;1.50;;;;;;;;;;5113943;28;20018;-49
2022/04/19 05:07:59;;;;;;;1.63;1.20;;;;;;;;;;5112885;28;20020;-49
2022/04/19 05:10:25;;;;;;;1.52;1.15;;;;;;;;;;5113883;28;20024;-49
2022/04/19 05:12:51;;;;;;;1.52;1.20;;;;;;;;;;5112686;28;20035;-48
2022/04/19 05:15:17;;;;;;;1.65;1.13;;;;;;;;;;5113803;28;20020;-49
2022/04/19 05:17:43;;;;;;;1.88;1.10;;;;;;;;;;5095366;28;20030;-49
2022/04/19 05:20:09;;;;;;;1.80;1.10;;;;;;;;;;5112839;28;20019;-49
2022/04/19 05:22:35;;;;;;;1.55;1.00;;;;;;;;;;5113675;28;20027;-48
2022/04/19 05:25:01;;;;;;;2.13;1.20;;;;;;;;;;5112582;28;20061;-48
2022/04/19 05:27:27;;;;;;;2.33;1.67;;;;;;;;;;5113551;28;20023;-52
2022/04/19 05:29:53;;;;;;;1.35;1.05;;;;;;;;;;5112535;28;20050;-52
2022/04/19 05:32:20;;;;;;;1.98;1.23;;;;;;;;;;5113202;28;20095;-50
2022/04/19 05:34:48;;;;;;;1.90;1.00;;;;;;;;;;5113377;28;20020;-54
2022/04/19 05:37:14;;;;;;;1.75;1.17;;;;;;;;;;5113062;28;20020;-48
2022/04/19 05:39:40;;;;;;;1.80;1.27;;;;;;;;;;5113355;28;20065;-50
2022/04/19 05:42:06;;;;;;;2.75;1.15;;;;;;;;;;5094290;28;20376;-48
2022/04/19 05:44:32;;;;;;;2.33;1.13;;;;;;;;;;5112890;28;20043;-49
2022/04/19 05:46:58;;;;;;;1.95;1.40;;;;;;;;;;5112421;28;20149;-51
2022/04/19 05:49:24;;;;;;;1.63;1.38;;;;;;;;;;5113224;28;20385;-52
2022/04/19 05:51:51;;;;;;;1.63;1.20;;;;;;;;;;5112398;28;20055;-55
2022/04/19 05:54:17;;;;;;;1.98;1.35;;;;;;;;;;5113273;28;20035;-53
2022/04/19 05:56:43;;;;;;;2.20;1.60;;;;;;;;;;5094765;28;20023;-50
2022/04/19 05:59:08;;;;;;;3.30;1.48;;;;;;;;;;5111977;28;20069;-49
2022/04/19 06:07:04;;;;;;;1.73;1.20;;;;;;;;;;5112236;28;20027;-52
2022/04/19 06:09:30;;;;;;;4.00;1.73;;;;;;;;;;5112825;28;20023;-50
2022/04/19 06:11:56;;;;;;;2.72;1.05;;;;;;;;;;5112084;28;20028;-49
2022/04/19 06:14:22;;;;;;;3.05;1.55;;;;;;;;;;5112710;28;20104;-50
2022/04/19 06:16:48;;;;;;;1.75;1.20;;;;;;;;;;5113004;28;20024;-52
2022/04/19 06:19:14;;;;;;;2.33;1.50;;;;;;;;;;5112136;28;20030;-50
2022/04/19 06:21:41;;;;;;;2.90;1.20;;;;;;;;;;5112720;28;20023;-52
2022/04/19 06:24:08;;;;;;;2.38;1.30;;;;;;;;;;5111551;28;20491;-53
2022/04/19 06:26:34;;;;;;;3.20;1.73;;;;;;;;;;5112575;28;20031;-53
2022/04/19 06:29:01;;;;;;;3.28;1.67;;;;;;;;;;5111617;28;20027;-48
2022/04/19 06:31:27;;;;;;;1.98;1.45;;;;;;;;;;5094706;28;20039;-47
2022/04/19 06:33:53;;;;;;;3.88;1.42;;;;;;;;;;5111760;28;20023;-55
2022/04/19 06:36:19;;;;;;;5.85;1.40;;;;;;;;;;5094239;28;20054;-48
2022/04/19 06:38:45;;;;;;;2.38;1.50;;;;;;;;;;5112528;28;20445;-48
2022/04/19 06:41:11;;;;;;;2.28;1.52;;;;;;;;;;5111948;28;20091;-49
2022/04/19 06:43:38;;;;;;;2.13;1.33;;;;;;;;;;5112220;28;20035;-48
2022/04/19 06:46:04;;;;;;;3.30;1.55;;;;;;;;;;5111718;28;20016;-49
2022/04/19 06:48:30;;;;;;;1.35;1.10;;;;;;;;;;5112811;28;20456;-48
2022/04/19 06:50:56;;;;;;;2.28;1.30;;;;;;;;;;5111366;28;20026;-51
2022/04/19 06:53:21;;;;;;;4.15;1.58;;;;;;;;;;5112548;28;20106;-50
2022/04/19 06:55:47;;;;;;;2.03;1.38;;;;;;;;;;5093997;28;20035;-48
2022/04/19 06:58:13;;;;;;;2.08;1.50;;;;;;;;;;5111594;28;20032;-48
2022/04/19 07:00:39;;;;;;;2.60;1.45;;;;;;;;;;5112691;28;20028;-48
2022/04/19 07:03:05;;;;;;;2.17;1.40;;;;;;;;;;5111491;28;20023;-49
2022/04/19 07:05:31;;;;;;;2.63;1.60;;;;;;;;;;5112162;28;20019;-50
2022/04/19 07:07:57;;;;;;;3.55;1.70;;;;;;;;;;5111528;28;20107;-51
2022/04/19 07:10:23;;;;;;;2.97;1.55;;;;;;;;;;5111829;28;20027;-52
2022/04/19 07:12:49;;;;;;;2.05;1.23;;;;;;;;;;5111656;28;20457;-52
2022/04/19 07:15:15;;;;;;;3.45;1.70;;;;;;;;;;5111224;28;20069;-52
2022/04/19 07:17:43;;;;;;;2.63;1.58;;;;;;;;;;5112181;28;20016;-49
2022/04/19 07:28:23;;;;;;;3.28;1.38;;;;;;;;;;5115684;28;20046;-48
2022/04/19 07:30:49;;;;;;;4.07;1.80;;;;;;;;;;5116138;28;20019;-48
2022/04/19 07:33:16;;;;;;;3.28;1.90;;;;;;;;;;5114930;28;20032;-48
2022/04/19 07:35:42;;;;;;;2.80;1.63;;;;;;;;;;5115777;28;20051;-50
2022/04/19 07:38:08;;;;;;;2.10;1.30;;;;;;;;;;5114891;28;20422;-51
2022/04/19 07:40:36;;;;;;;2.22;1.20;;;;;;;;;;5115665;28;20055;-49
2022/04/19 07:43:02;;;;;;;2.90;1.98;;;;;;;;;;5114624;28;20047;-49
2022/04/19 07:45:29;;;;;;;2.42;1.60;;;;;;;;;;5115213;28;20511;-48
2022/04/19 07:47:55;;;;;;;2.78;1.65;;;;;;;;;;5097114;28;20357;-55
2022/04/19 07:50:21;;;;;;;2.28;1.48;;;;;;;;;;5114837;28;20023;-50
2022/04/19 07:52:47;;;;;;;2.58;1.52;;;;;;;;;;5115362;28;20496;-48
2022/04/19 07:55:13;;;;;;;2.35;1.40;;;;;;;;;;5114474;28;20472;-48
2022/04/19 07:57:39;;;;;;;2.55;1.65;;;;;;;;;;5115311;28;20045;-49
2022/04/19 08:00:06;;;;;;;2.58;1.40;;;;;;;;;;5114528;28;20015;-49
2022/04/19 08:02:32;;;;;;;3.35;1.85;;;;;;;;;;5114693;28;20031;-50
2022/04/19 08:04:58;;;;;;;2.95;1.63;;;;;;;;;;5114760;28;20028;-56
2022/04/19 08:07:24;;;;;;;3.38;1.35;;;;;;;;;;5114993;28;20395;-48
2022/04/19 08:09:50;;;;;;;2.60;1.45;;;;;;;;;;5115137;28;20035;-48
2022/04/19 08:12:16;;;;;;;1.58;1.30;;;;;;;;;;5114285;28;20571;-51
2022/04/19 08:14:42;;;;;;;3.85;2.00;;;;;;;;;;5114613;28;20059;-51
2022/04/19 08:17:08;;;;;;;2.38;1.48;;;;;;;;;;5114254;28;20024;-49
2022/04/19 08:19:34;;;;;;;2.60;1.30;;;;;;;;;;5114669;28;20027;-52
2022/04/19 08:22:00;;;;;;;2.17;1.45;;;;;;;;;;5114012;28;20376;-56
2022/04/19 08:24:26;;;;;;;1.65;1.50;;;;;;;;;;5115187;28;20028;-50
2022/04/19 08:26:52;;;;;;;2.92;1.85;;;;;;;;;;5114647;28;20384;-47
2022/04/19 08:29:18;;;;;;;2.50;1.63;;;;;;;;;;5113679;28;20027;-49
2022/04/19 08:31:44;;;;;;;6.57;1.75;;;;;;;;;;5113773;28;20027;-48
2022/04/19 08:34:10;;;;;;;3.05;1.52;;;;;;;;;;5113610;28;20043;-48
2022/04/19 08:36:36;;;;;;;3.08;1.65;;;;;;;;;;5114666;28;20032;-48
2022/04/19 08:39:03;;;;;;;3.22;1.67;;;;;;;;;;5113787;28;20026;-48
2022/04/19 08:41:30;;;;;;;2.80;1.50;;;;;;;;;;5114456;28;20055;-48
2022/04/19 08:43:55;;;;;;;2.80;1.70;;;;;;;;;;5114320;28;20048;-49
2022/04/19 08:46:22;;;;;;;2.40;1.73;;;;;;;;;;5113940;28;20115;-48
2022/04/19 08:48:48;;;;;;;2.45;1.38;;;;;;;;;;5114439;28;20030;-48
2022/04/19 08:51:14;;;;;;;2.97;1.40;;;;;;;;;;5113508;28;20019;-48
2022/04/19 08:59:10;;;;;;;3.25;1.70;;;;;;;;;;5113173;28;20031;-49
2022/04/19 09:01:36;;;;;;;2.53;1.50;;;;;;;;;;5114114;28;20030;-48
2022/04/19 09:04:06;;;;;;;3.38;2.08;;;;;;;;;;5113402;28;20024;-55
2022/04/19 09:06:51;;;;;;;3.60;1.48;;;;;;;;;;5114226;28;20020;-49
2022/04/19 09:09:17;;;;;;;3.13;1.67;;;;;;;;;;5113156;28;20069;-48
2022/04/19 09:11:43;;;;;;;2.83;1.50;;;;;;;;;;5113870;28;20024;-49
2022/04/19 09:14:09;;;;;;;2.08;1.40;;;;;;;;;;5112734;28;20366;-48
2022/04/19 09:16:35;;;;;;;3.00;1.40;;;;;;;;;;5113801;28;20020;-48
2022/04/19 09:19:01;;;;;;;2.67;1.70;;;;;;;;;;5113538;28;20491;-56
2022/04/19 09:21:37;;;;;;;1.70;1.30;;;;;;;;;;5113308;28;20024;-48
2022/04/19 09:24:15;;;;;;;3.28;1.88;;;;;;;;;;5112774;28;20055;-55
2022/04/19 09:26:42;;;;;;;2.22;1.27;;;;;;;;;;5113632;28;20036;-49
2022/04/19 09:29:24;;;;;;;2.78;1.50;;;;;;;;;;5112667;28;20092;-52
2022/04/19 09:31:50;;;;;;;;;;;;;;;;;;5113959;28;20020;-49
2022/04/19 09:34:42;;;;;;;1.88;1.40;;;;;;;;;;5112697;28;19937;-48
2022/04/19 09:37:10;;;;;;;3.05;1.35;;;;;;;;;;5108872;28;20046;-50
2022/04/19 09:39:37;;;;;;;2.42;1.40;;;;;;;;;;5113553;28;20024;-52
2022/04/19 09:42:14;;;;;;;3.85;1.42;;;;;;;;;;5112953;28;20401;-56
2022/04/19 09:44:43;;;;;;;2.83;1.35;;;;;;;;;;5113042;28;20132;-48
2022/04/19 09:47:10;;;;;;;2.50;1.25;;;;;;;;;;5112233;28;20460;-49
2022/04/19 09:49:43;;;;;;;2.45;1.42;;;;;;;;;;5113663;28;20367;-49
2022/04/19 09:52:12;;;;;;;2.40;1.27;;;;;;;;;;5112356;28;20024;-48
2022/04/19 09:54:38;;;;;;;1.88;1.25;;;;;;;;;;5112859;28;20047;-49
2022/04/19 09:57:09;;;;;;;3.00;1.40;;;;;;;;;;5112661;28;20038;-55
2022/04/19 09:59:39;;;;;;;3.20;1.38;;;;;;;;;;5112818;28;20485;-48
2022/04/19 10:08:18;;;;;;;2.10;1.25;;;;;;;;;;5050132;28;20063;-49
2022/04/19 10:10:44;;;;;;;3.65;1.40;;;;;;;;;;5097282;28;20081;-49
2022/04/19 10:13:12;;;;;;;2.72;1.13;;;;;;;;;;5111944;28;20032;-50
2022/04/19 10:15:40;;;;;;;2.45;0.93;;;;;;;;;;5112726;28;20028;-48
2022/04/19 10:18:06;;;;;;;2.13;1.40;;;;;;;;;;5112360;28;20035;-56
2022/04/19 10:20:34;;;;;;;6.22;2.10;;;;;;;;;;5112769;28;20020;-48
2022/04/19 10:23:02;;;;;;;1.85;1.20;;;;;;;;;;5112476;28;20031;-48
2022/04/19 10:25:43;;;;;;;1.67;1.27;;;;;;;;;;5111917;28;20675;-48
2022/04/19 10:28:09;;;;;;;3.05;1.40;;;;;;;;;;5111556;28;20484;-48
2022/04/19 10:30:39;;;;;;;1.48;1.05;;;;;;;;;;5112862;28;20067;-48
2022/04/19 10:33:24;;;;;;;2.47;1.25;;;;;;;;;;5112040;28;20480;-56
2022/04/19 10:36:09;;;;;;;2.42;1.08;;;;;;;;;;5112597;28;20024;-49
2022/04/19 10:38:35;;;;;;;2.03;1.15;;;;;;;;;;5094306;28;20483;-48
2022/04/19 10:41:01;;;;;;;2.65;1.20;;;;;;;;;;5112312;28;20095;-49
2022/04/19 10:43:27;;;;;;;1.77;1.10;;;;;;;;;;5112035;28;20079;-49
2022/04/19 10:45:54;;;;;;;1.70;1.20;;;;;;;;;;5112242;28;20108;-48
2022/04/19 10:48:22;;;;;;;1.77;1.00;;;;;;;;;;5111708;28;20042;-50
2022/04/19 10:50:51;;;;;;;1.58;0.90;;;;;;;;;;5112118;28;20500;-50
2022/04/19 10:53:17;;;;;;;2.20;1.08;;;;;;;;;;5111837;28;20142;-48
2022/04/19 10:56:02;;;;;;;2.42;1.10;;;;;;;;;;5095820;28;20031;-48
2022/04/19 10:58:39;;;;;;;1.52;1.00;;;;;;;;;;5115759;28;20019;-50
2022/04/19 11:01:09;;;;;;;1.48;0.95;;;;;;;;;;5116302;28;20027;-51
2022/04/19 11:03:46;;;;;;;1.50;0.80;;;;;;;;;;5116509;28;20160;-51
2022/04/19 11:06:31;;;;;;;1.17;1.00;;;;;;;;;;5115470;28;20403;-50
2022/04/19 11:09:09;;;;;;;2.83;1.10;;;;;;;;;;5116117;28;20020;-49
2022/04/19 11:11:45;;;;;;;1.45;0.90;;;;;;;;;;5115883;28;20051;-50
2022/04/19 11:14:35;;;;;;;1.88;0.90;;;;;;;;;;5115127;28;20077;-49
2022/04/19 11:17:20;;;;;;;1.45;1.05;;;;;;;;;;5115960;28;20019;-49
2022/04/19 11:19:56;;;;;;;1.52;1.13;;;;;;;;;;5116039;28;20035;-49
2022/04/19 11:22:42;;;;;;;1.20;1.10;;;;;;;;;;5096878;28;20369;-48
2022/04/19 11:25:08;;;;;;;1.17;0.88;;;;;;;;;;5097376;28;20032;-55
2022/04/19 11:27:52;;;;;;;3.13;1.20;;;;;;;;;;5115384;28;20059;-51
2022/04/19 11:30:19;;;;;;;1.88;0.95;;;;;;;;;;5115248;28;20073;-48
2022/04/19 11:32:49;;;;;;;1.05;0.90;;;;;;;;;;5115702;28;20032;-49
2022/04/19 11:35:16;;;;;;;1.33;1.15;;;;;;;;;;5115045;28;20046;-50
2022/04/19 11:37:43;;;;;;;1.75;1.02;;;;;;;;;;5115731;28;20019;-49
2022/04/19 11:48:38;;;;;;;2.05;1.08;;;;;;;;;;5094859;28;20126;-51
2022/04/19 11:51:11;;;;;;;1.05;0.85;;;;;;;;;;5095156;28;20456;-48
2022/04/19 11:53:37;;;;;;;1.15;0.70;;;;;;;;;;5094800;28;20032;-50
2022/04/19 11:56:04;;;;;;;1.90;0.80;;;;;;;;;;5095162;28;20034;-50
2022/04/19 11:58:30;;;;;;;2.70;0.88;;;;;;;;;;5094198;28;20040;-49
2022/04/19 12:01:06;;;;;;;1.17;0.90;;;;;;;;;;5095009;28;20058;-49
2022/04/19 12:03:34;;;;;;;1.58;1.17;;;;;;;;;;5094437;28;20016;-50
2022/04/19 12:06:08;;;;;;;1.10;0.70;;;;;;;;;;5094598;28;20030;-49
2022/04/19 12:08:37;;;;;;;1.27;0.90;;;;;;;;;;5092760;28;20020;-53
2022/04/19 12:11:04;;;;;;;1.10;1.00;;;;;;;;;;5094461;28;20012;-49
2022/04/19 12:13:30;;;;;;;1.67;0.90;;;;;;;;;;5093825;28;20138;-48
2022/04/19 12:15:56;;;;;;;1.10;0.82;;;;;;;;;;5094693;28;20021;-48
2022/04/19 12:18:32;;;;;;;1.13;0.90;;;;;;;;;;5092508;28;20023;-49
2022/04/19 12:20:59;;;;;;;2.13;0.90;;;;;;;;;;5094511;28;20031;-48
2022/04/19 12:23:25;;;;;;;1.77;0.95;;;;;;;;;;5093751;28;20020;-48
2022/04/19 12:25:58;;;;;;;1.85;0.93;;;;;;;;;;5094739;28;20457;-49
2022/04/19 12:28:33;;;;;;;1.65;1.10;;;;;;;;;;5093369;28;20493;-48
2022/04/19 12:30:59;;;;;;;1.13;0.90;;;;;;;;;;5094300;28;20048;-49
2022/04/19 12:33:25;;;;;;;2.08;1.15;;;;;;;;;;5093357;28;20070;-48
2022/04/19 12:35:54;;;;;;;1.70;1.00;;;;;;;;;;5094158;28;20032;-48
2022/04/19 12:38:28;;;;;;;2.53;0.90;;;;;;;;;;5093243;28;20410;-49
2022/04/19 12:40:54;;;;;;;0.90;0.70;;;;;;;;;;5094027;28;20058;-50
2022/04/19 12:43:20;;;;;;;1.25;0.80;;;;;;;;;;5092068;28;20028;-49
2022/04/19 12:45:48;;;;;;;1.35;0.95;;;;;;;;;;5073159;28;20055;-48
2022/04/19 12:48:21;;;;;;;1.30;1.15;;;;;;;;;;5073231;28;20099;-56
2022/04/19 12:50:47;;;;;;;0.95;0.77;;;;;;;;;;5073646;28;20021;-48
2022/04/19 12:53:22;;;;;;;3.75;1.67;;;;;;;;;;5073667;28;20106;-56
2022/04/19 12:58:52;;;;;;;0.80;0.70;;;;;;;;;;5073608;28;20051;-48
2022/04/19 13:01:18;;;;;;;2.78;0.98;;;;;;;;;;5072466;28;20119;-51
2022/04/19 13:03:44;;;;;;;1.65;1.10;;;;;;;;;;5073502;28;20091;-51
2022/04/19 13:14:25;;;;;;;1.00;0.80;;;;;;;;;;5072277;28;20405;-50
2022/04/19 13:16:51;;;;;;;1.23;0.80;;;;;;;;;;5073152;28;20029;-48
2022/04/19 13:19:17;;;;;;;1.20;0.95;;;;;;;;;;5072039;28;20032;-56
2022/04/19 13:21:43;;;;;;;0.90;0.80;;;;;;;;;;5072662;28;20024;-48
2022/04/19 13:24:09;;;;;;;1.13;1.00;;;;;;;;;;5072995;28;20078;-49
2022/04/19 13:26:36;;;;;;;0.80;0.60;;;;;;;;;;5072229;28;20215;-48
2022/04/19 13:29:02;;;;;;;1.13;0.82;;;;;;;;;;5072967;28;20020;-48
2022/04/19 13:31:28;;;;;;;1.58;0.90;;;;;;;;;;5072142;28;20025;-48
2022/04/19 13:33:54;;;;;;;1.98;0.77;;;;;;;;;;5072529;28;20033;-51
2022/04/19 13:36:20;;;;;;;1.15;0.80;;;;;;;;;;5072065;28;20056;-48
2022/04/19 13:38:46;;;;;;;1.25;1.00;;;;;;;;;;5072822;28;20079;-49
2022/04/19 13:41:12;;;;;;;1.20;0.80;;;;;;;;;;5072681;28;20035;-48
2022/04/19 13:43:38;;;;;;;1.98;1.05;;;;;;;;;;5074522;28;20626;-48
2022/04/19 13:46:05;;;;;;;3.78;1.95;;;;;;;;;;5113622;28;20027;-49
2022/04/19 13:48:32;;;;;;;1.17;0.75;;;;;;;;;;5112453;28;20026;-48
2022/04/19 13:50:58;;;;;;;1.13;0.95;;;;;;;;;;5113221;28;20598;-48
2022/04/19 13:53:25;;;;;;;1.60;0.90;;;;;;;;;;5112019;28;20114;-49
2022/04/19 13:55:52;;;;;;;2.88;1.60;;;;;;;;;;5113254;28;20111;-49
2022/04/19 13:58:18;;;;;;;2.08;0.82;;;;;;;;;;5112736;28;20035;-55
2022/04/19 14:00:45;;;;;;;0.98;0.70;;;;;;;;;;5112635;28;20027;-48
2022/04/19 14:03:11;;;;;;;0.82;0.73;;;;;;;;;;5112838;28;20027;-53
2022/04/19 14:05:37;;;;;;;1.48;0.90;;;;;;;;;;5111992;28;20106;-53
2022/04/19 14:08:03;;;;;;;1.65;0.80;;;;;;;;;;5112761;28;20023;-49
2022/04/19 14:10:30;;;;;;;0.82;0.80;;;;;;;;;;5111678;28;20100;-50
2022/04/19 14:12:56;;;;;;;1.25;0.60;;;;;;;;;;5112734;28;20031;-47
2022/04/19 14:15:22;;;;;;;1.05;0.73;;;;;;;;;;5093941;28;20452;-52
2022/04/19 14:17:48;;;;;;;0.88;0.70;;;;;;;;;;5113075;28;20035;-48
2022/04/19 14:20:15;;;;;;;1.65;1.13;;;;;;;;;;5112782;28;20384;-48
2022/04/19 14:22:41;;;;;;;0.82;0.60;;;;;;;;;;5111977;28;20019;-48
2022/04/19 14:25:07;;;;;;;0.90;0.77;;;;;;;;;;5112613;28;20427;-48
2022/04/19 14:27:33;;;;;;;0.70;0.63;;;;;;;;;;5111880;28;20130;-48
2022/04/19 14:35:29;;;;;;;0.70;0.70;;;;;;;;;;5111898;28;20080;-48
2022/04/19 14:37:55;;;;;;;0.70;0.60;;;;;;;;;;5112529;28;20423;-49
2022/04/19 14:40:21;;;;;;;1.30;0.80;;;;;;;;;;5111959;28;20019;-55
2022/04/19 14:42:47;;;;;;;1.27;0.80;;;;;;;;;;5112257;28;20514;-48
2022/04/19 14:45:13;;;;;;;0.90;0.70;;;;;;;;;;5076095;28;20057;-50
2022/04/19 14:47:39;;;;;;;0.80;0.77;;;;;;;;;;5071192;28;20352;-47
2022/04/19 14:50:06;;;;;;;1.10;1.00;;;;;;;;;;5072069;28;20096;-48
2022/04/19 14:52:32;;;;;;;1.98;0.88;;;;;;;;;;5071347;28;20056;-48
2022/04/19 14:54:58;;;;;;;1.02;0.70;;;;;;;;;;5071953;28;20040;-48
2022/04/19 14:57:25;;;;;;;1.30;0.90;;;;;;;;;;5070886;28;20055;-55
2022/04/19 14:59:51;;;;;;;1.25;1.02;;;;;;;;;;5071952;28;20039;-51
2022/04/19 15:02:17;;;;;;;2.35;0.70;;;;;;;;;;5071762;28;20024;-49
2022/04/19 15:04:43;;;;;;;1.00;0.90;;;;;;;;;;5070971;28;20090;-48
2022/04/19 15:07:09;;;;;;;1.35;0.88;;;;;;;;;;5070636;28;20031;-48
2022/04/19 15:09:35;;;;;;;1.17;0.80;;;;;;;;;;5070654;28;20017;-50
2022/04/19 15:12:02;;;;;;;2.15;0.80;;;;;;;;;;5071436;28;20469;-51
2022/04/19 15:14:28;;;;;;;1.25;1.08;;;;;;;;;;5070789;28;20079;-50
2022/04/19 15:16:54;;;;;;;1.13;0.82;;;;;;;;;;5071419;28;20020;-48
2022/04/19 15:19:20;;;;;;;1.15;0.88;;;;;;;;;;5071237;28;20021;-50
2022/04/19 15:21:46;;;;;;;2.03;1.02;;;;;;;;;;5070838;28;20020;-49
2022/04/19 15:24:13;;;;;;;1.50;0.75;;;;;;;;;;5071429;28;20155;-48
2022/04/19 15:26:39;;;;;;;0.73;0.60;;;;;;;;;;5070542;28;20466;-48
2022/04/19 15:29:05;;;;;;;1.55;0.85;;;;;;;;;;5071286;28;20381;-48
2022/04/19 15:31:32;;;;;;;1.15;0.80;;;;;;;;;;5070446;28;20434;-48
2022/04/19 15:33:58;;;;;;;1.80;1.10;;;;;;;;;;5071433;28;20082;-49
2022/04/19 15:36:25;;;;;;;1.95;0.93;;;;;;;;;;5071151;28;20024;-56
2022/04/19 15:38:51;;;;;;;1.23;0.80;;;;;;;;;;5071316;28;20040;-53
2022/04/19 15:41:17;;;;;;;1.17;0.90;;;;;;;;;;5071757;28;20465;-50
2022/04/19 15:43:43;;;;;;;1.30;0.80;;;;;;;;;;5078014;28;20117;-48
2022/04/19 15:46:09;;;;;;;2.45;0.80;;;;;;;;;;5115360;28;20453;-49